sensor_id;sensor_type;location;lat;lon;timestamp;pressure;altitude;pressure_sealevel;temperature;humidity
60832;BME280;46665;51.558;-0.448;2023-10-13T00:00:44;100246.75;;;14.15;100.00
60832;BME280;46665;51.558;-0.448;2023-10-13T00:03:28;100248.38;;;14.16;100.00
60832;BME280;46665;51.558;-0.448;2023-10-13T00:06:15;100235.34;;;14.13;100.00
60832;BME280;46665;51.558;-0.448;2023-10-13T00:08:59;100232.13;;;14.11;100.00
60832;BME280;46665;51.558;-0.448;2023-10-13T00:11:43;100227.13;;;14.13;100.00
60832;BME280;46665;51.558;-0.448;2023-10-13T00:14:30;100226.81;;;14.15;100.00
60832;BME280;46665;51.558;-0.448;2023-10-13T00:17:18;100208.28;;;14.12;100.00
60832;BME280;46665;51.558;-0.448;2023-10-13T00:20:09;100201.69;;;14.13;100.00
60832;BME280;46665;51.558;-0.448;2023-10-13T00:23:11;100187.03;;;14.08;100.00
60832;BME280;46665;51.558;-0.448;2023-10-13T00:25:56;100193.00;;;14.11;100.00
60832;BME280;46665;51.558;-0.448;2023-10-13T00:28:43;100194.31;;;14.13;100.00
60832;BME280;46665;51.558;-0.448;2023-10-13T00:31:30;100185.25;;;14.13;100.00
60832;BME280;46665;51.558;-0.448;2023-10-13T00:34:17;100183.81;;;14.15;100.00
60832;BME280;46665;51.558;-0.448;2023-10-13T00:37:09;100167.91;;;14.17;100.00
60832;BME280;46665;51.558;-0.448;2023-10-13T00:40:02;100152.28;;;14.18;100.00
60832;BME280;46665;51.558;-0.448;2023-10-13T00:42:53;100148.44;;;14.19;100.00
60832;BME280;46665;51.558;-0.448;2023-10-13T00:45:37;100142.63;;;14.20;100.00
60832;BME280;46665;51.558;-0.448;2023-10-13T00:48:25;100130.41;;;14.18;100.00
60832;BME280;46665;51.558;-0.448;2023-10-13T00:51:13;100127.34;;;14.19;100.00
60832;BME280;46665;51.558;-0.448;2023-10-13T00:54:17;100123.69;;;14.24;100.00
60832;BME280;46665;51.558;-0.448;2023-10-13T00:57:03;100108.38;;;14.23;100.00
60832;BME280;46665;51.558;-0.448;2023-10-13T01:00:10;100101.78;;;14.24;100.00
60832;BME280;46665;51.558;-0.448;2023-10-13T01:03:03;100081.63;;;14.20;100.00
60832;BME280;46665;51.558;-0.448;2023-10-13T01:05:50;100079.75;;;14.29;100.00
60832;BME280;46665;51.558;-0.448;2023-10-13T01:08:37;100083.44;;;14.24;100.00
60832;BME280;46665;51.558;-0.448;2023-10-13T01:11:22;100075.88;;;14.30;100.00
60832;BME280;46665;51.558;-0.448;2023-10-13T01:14:11;100073.13;;;14.30;100.00
60832;BME280;46665;51.558;-0.448;2023-10-13T01:16:55;100065.41;;;14.32;100.00
60832;BME280;46665;51.558;-0.448;2023-10-13T01:19:42;100084.75;;;14.36;100.00
60832;BME280;46665;51.558;-0.448;2023-10-13T01:22:26;100062.50;;;14.37;100.00
60832;BME280;46665;51.558;-0.448;2023-10-13T01:25:12;100048.84;;;14.37;100.00
60832;BME280;46665;51.558;-0.448;2023-10-13T01:28:02;100048.66;;;14.42;100.00
60832;BME280;46665;51.558;-0.448;2023-10-13T01:30:46;100042.53;;;14.45;100.00
60832;BME280;46665;51.558;-0.448;2023-10-13T01:33:33;100044.97;;;14.47;100.00
60832;BME280;46665;51.558;-0.448;2023-10-13T01:36:19;100040.31;;;14.47;100.00
60832;BME280;46665;51.558;-0.448;2023-10-13T01:39:03;100023.06;;;14.47;100.00
60832;BME280;46665;51.558;-0.448;2023-10-13T01:41:47;100011.34;;;14.46;100.00
60832;BME280;46665;51.558;-0.448;2023-10-13T01:44:39;100004.56;;;14.44;100.00
60832;BME280;46665;51.558;-0.448;2023-10-13T01:47:22;99997.00;;;14.41;100.00
60832;BME280;46665;51.558;-0.448;2023-10-13T01:50:07;99992.97;;;14.38;100.00
60832;BME280;46665;51.558;-0.448;2023-10-13T01:53:12;99989.91;;;14.40;100.00
60832;BME280;46665;51.558;-0.448;2023-10-13T01:55:56;99994.72;;;14.43;100.00
60832;BME280;46665;51.558;-0.448;2023-10-13T01:58:41;99983.94;;;14.38;100.00
60832;BME280;46665;51.558;-0.448;2023-10-13T02:01:33;99978.00;;;14.36;100.00
60832;BME280;46665;51.558;-0.448;2023-10-13T02:04:18;99978.31;;;14.34;100.00
60832;BME280;46665;51.558;-0.448;2023-10-13T02:07:05;99979.47;;;14.33;100.00
60832;BME280;46665;51.558;-0.448;2023-10-13T02:09:53;99983.31;;;14.32;100.00
60832;BME280;46665;51.558;-0.448;2023-10-13T02:12:40;99979.94;;;14.26;100.00
60832;BME280;46665;51.558;-0.448;2023-10-13T02:15:27;99973.16;;;14.24;100.00
60832;BME280;46665;51.558;-0.448;2023-10-13T02:18:20;99973.16;;;14.24;100.00
60832;BME280;46665;51.558;-0.448;2023-10-13T02:21:10;99956.56;;;14.20;100.00
60832;BME280;46665;51.558;-0.448;2023-10-13T02:23:58;99950.00;;;14.21;100.00
60832;BME280;46665;51.558;-0.448;2023-10-13T02:26:47;99942.91;;;14.20;100.00
60832;BME280;46665;51.558;-0.448;2023-10-13T02:29:32;99938.88;;;14.18;100.00
60832;BME280;46665;51.558;-0.448;2023-10-13T02:32:23;99939.53;;;14.15;100.00
60832;BME280;46665;51.558;-0.448;2023-10-13T02:35:06;99922.16;;;14.11;100.00
60832;BME280;46665;51.558;-0.448;2023-10-13T02:37:53;99901.56;;;14.13;100.00
60832;BME280;46665;51.558;-0.448;2023-10-13T02:40:40;99889.81;;;14.04;100.00
60832;BME280;46665;51.558;-0.448;2023-10-13T02:43:23;99902.53;;;14.08;100.00
60832;BME280;46665;51.558;-0.448;2023-10-13T02:46:08;99872.91;;;14.02;100.00
60832;BME280;46665;51.558;-0.448;2023-10-13T02:48:51;99856.84;;;14.00;100.00
60832;BME280;46665;51.558;-0.448;2023-10-13T02:51:41;99863.09;;;14.01;100.00
60832;BME280;46665;51.558;-0.448;2023-10-13T02:54:26;99849.75;;;13.99;100.00
60832;BME280;46665;51.558;-0.448;2023-10-13T02:57:14;99843.47;;;13.99;100.00
60832;BME280;46665;51.558;-0.448;2023-10-13T03:00:02;99844.28;;;13.99;100.00
60832;BME280;46665;51.558;-0.448;2023-10-13T03:02:59;99833.50;;;14.03;100.00
60832;BME280;46665;51.558;-0.448;2023-10-13T03:05:44;99825.59;;;14.01;100.00
60832;BME280;46665;51.558;-0.448;2023-10-13T03:08:29;99814.81;;;14.05;100.00
60832;BME280;46665;51.558;-0.448;2023-10-13T03:11:15;99817.09;;;14.03;100.00
60832;BME280;46665;51.558;-0.448;2023-10-13T03:14:04;99810.16;;;14.05;100.00
60832;BME280;46665;51.558;-0.448;2023-10-13T03:16:58;99787.47;;;14.05;100.00
60832;BME280;46665;51.558;-0.448;2023-10-13T03:19:47;99772.97;;;14.04;100.00
60832;BME280;46665;51.558;-0.448;2023-10-13T03:22:34;99765.56;;;14.05;100.00
60832;BME280;46665;51.558;-0.448;2023-10-13T03:25:19;99752.72;;;14.05;100.00
60832;BME280;46665;51.558;-0.448;2023-10-13T03:28:21;99743.06;;;13.99;100.00
60832;BME280;46665;51.558;-0.448;2023-10-13T03:31:09;99734.38;;;14.06;100.00
60832;BME280;46665;51.558;-0.448;2023-10-13T03:34:01;99731.28;;;14.07;100.00
60832;BME280;46665;51.558;-0.448;2023-10-13T03:36:45;99712.63;;;14.09;100.00
60832;BME280;46665;51.558;-0.448;2023-10-13T03:39:41;99704.09;;;14.11;100.00
60832;BME280;46665;51.558;-0.448;2023-10-13T03:42:28;99693.28;;;14.15;100.00
60832;BME280;46665;51.558;-0.448;2023-10-13T03:45:12;99687.16;;;14.18;100.00
60832;BME280;46665;51.558;-0.448;2023-10-13T03:47:56;99674.75;;;14.20;100.00
60832;BME280;46665;51.558;-0.448;2023-10-13T03:50:40;99663.78;;;14.29;100.00
60832;BME280;46665;51.558;-0.448;2023-10-13T03:53:33;99660.53;;;14.36;100.00
60832;BME280;46665;51.558;-0.448;2023-10-13T03:56:17;99651.59;;;14.47;100.00
60832;BME280;46665;51.558;-0.448;2023-10-13T03:59:10;99634.06;;;14.48;100.00
60832;BME280;46665;51.558;-0.448;2023-10-13T04:02:02;99621.81;;;14.55;100.00
60832;BME280;46665;51.558;-0.448;2023-10-13T04:04:50;99625.31;;;14.64;100.00
60832;BME280;46665;51.558;-0.448;2023-10-13T04:07:38;99626.22;;;14.68;100.00
60832;BME280;46665;51.558;-0.448;2023-10-13T04:10:44;99620.53;;;14.73;100.00
60832;BME280;46665;51.558;-0.448;2023-10-13T04:13:28;99611.00;;;14.79;100.00
60832;BME280;46665;51.558;-0.448;2023-10-13T04:16:31;99613.06;;;14.82;100.00
60832;BME280;46665;51.558;-0.448;2023-10-13T04:19:20;99613.19;;;14.86;100.00
60832;BME280;46665;51.558;-0.448;2023-10-13T04:22:07;99606.25;;;14.88;100.00
60832;BME280;46665;51.558;-0.448;2023-10-13T04:24:58;99597.19;;;14.97;100.00
60832;BME280;46665;51.558;-0.448;2023-10-13T04:28:06;99583.13;;;14.98;100.00
60832;BME280;46665;51.558;-0.448;2023-10-13T04:30:59;99584.28;;;14.97;100.00
60832;BME280;46665;51.558;-0.448;2023-10-13T04:33:50;99595.50;;;15.04;100.00
60832;BME280;46665;51.558;-0.448;2023-10-13T04:36:44;99596.06;;;15.10;100.00
60832;BME280;46665;51.558;-0.448;2023-10-13T04:39:39;99596.66;;;15.15;100.00
60832;BME280;46665;51.558;-0.448;2023-10-13T04:42:23;99600.19;;;15.16;100.00
60832;BME280;46665;51.558;-0.448;2023-10-13T04:45:37;99582.63;;;15.17;100.00
60832;BME280;46665;51.558;-0.448;2023-10-13T04:48:21;99572.47;;;15.17;100.00
60832;BME280;46665;51.558;-0.448;2023-10-13T04:51:05;99567.25;;;15.25;100.00
60832;BME280;46665;51.558;-0.448;2023-10-13T04:54:18;99576.25;;;15.25;100.00
60832;BME280;46665;51.558;-0.448;2023-10-13T04:57:28;99560.28;;;15.27;100.00
60832;BME280;46665;51.558;-0.448;2023-10-13T05:00:18;99567.72;;;15.39;100.00
60832;BME280;46665;51.558;-0.448;2023-10-13T05:03:05;99569.19;;;15.36;100.00
60832;BME280;46665;51.558;-0.448;2023-10-13T05:06:20;99557.22;;;15.41;100.00
60832;BME280;46665;51.558;-0.448;2023-10-13T05:09:23;99563.97;;;15.44;100.00
60832;BME280;46665;51.558;-0.448;2023-10-13T05:12:26;99558.94;;;15.46;100.00
60832;BME280;46665;51.558;-0.448;2023-10-13T05:15:29;99553.00;;;15.44;100.00
60832;BME280;46665;51.558;-0.448;2023-10-13T05:18:32;99553.94;;;15.48;100.00
60832;BME280;46665;51.558;-0.448;2023-10-13T05:21:35;99546.50;;;15.48;100.00
60832;BME280;46665;51.558;-0.448;2023-10-13T05:24:38;99541.81;;;15.49;100.00
60832;BME280;46665;51.558;-0.448;2023-10-13T05:27:54;99539.88;;;15.49;100.00
60832;BME280;46665;51.558;-0.448;2023-10-13T05:31:00;99531.63;;;15.49;100.00
60832;BME280;46665;51.558;-0.448;2023-10-13T05:34:04;99537.13;;;15.49;100.00
60832;BME280;46665;51.558;-0.448;2023-10-13T05:37:06;99535.63;;;15.52;100.00
60832;BME280;46665;51.558;-0.448;2023-10-13T05:40:10;99529.13;;;15.56;100.00
60832;BME280;46665;51.558;-0.448;2023-10-13T05:43:13;99537.50;;;15.60;100.00
60832;BME280;46665;51.558;-0.448;2023-10-13T05:46:16;99519.56;;;15.63;100.00
60832;BME280;46665;51.558;-0.448;2023-10-13T05:49:09;99497.84;;;15.70;100.00
60832;BME280;46665;51.558;-0.448;2023-10-13T05:52:13;99491.72;;;15.73;100.00
60832;BME280;46665;51.558;-0.448;2023-10-13T05:55:04;99488.59;;;15.74;100.00
60832;BME280;46665;51.558;-0.448;2023-10-13T05:58:20;99499.00;;;15.81;100.00
60832;BME280;46665;51.558;-0.448;2023-10-13T06:01:23;99500.97;;;15.80;100.00
60832;BME280;46665;51.558;-0.448;2023-10-13T06:04:26;99472.03;;;15.83;100.00
60832;BME280;46665;51.558;-0.448;2023-10-13T06:07:29;99486.09;;;15.81;100.00
60832;BME280;46665;51.558;-0.448;2023-10-13T06:10:32;99493.19;;;15.82;100.00
60832;BME280;46665;51.558;-0.448;2023-10-13T06:13:34;99480.94;;;15.92;100.00
60832;BME280;46665;51.558;-0.448;2023-10-13T06:16:35;99456.47;;;15.87;100.00
60832;BME280;46665;51.558;-0.448;2023-10-13T06:19:40;99471.78;;;16.00;100.00
60832;BME280;46665;51.558;-0.448;2023-10-13T06:22:47;99450.09;;;15.95;100.00
60832;BME280;46665;51.558;-0.448;2023-10-13T06:25:53;99451.88;;;16.16;100.00
60832;BME280;46665;51.558;-0.448;2023-10-13T06:28:56;99449.38;;;16.11;100.00
60832;BME280;46665;51.558;-0.448;2023-10-13T06:31:40;99442.72;;;16.12;100.00
60832;BME280;46665;51.558;-0.448;2023-10-13T06:34:30;99445.13;;;16.13;100.00
60832;BME280;46665;51.558;-0.448;2023-10-13T06:37:29;99428.97;;;16.24;100.00
60832;BME280;46665;51.558;-0.448;2023-10-13T06:40:16;99441.44;;;16.21;100.00
60832;BME280;46665;51.558;-0.448;2023-10-13T06:43:09;99444.50;;;16.20;100.00
60832;BME280;46665;51.558;-0.448;2023-10-13T06:46:00;99439.94;;;16.24;100.00
60832;BME280;46665;51.558;-0.448;2023-10-13T06:48:44;99440.41;;;16.26;100.00
60832;BME280;46665;51.558;-0.448;2023-10-13T06:51:28;99441.28;;;16.30;100.00
60832;BME280;46665;51.558;-0.448;2023-10-13T06:54:21;99434.03;;;16.38;100.00
60832;BME280;46665;51.558;-0.448;2023-10-13T06:57:05;99429.72;;;16.37;100.00
60832;BME280;46665;51.558;-0.448;2023-10-13T06:59:58;99434.69;;;16.47;100.00
60832;BME280;46665;51.558;-0.448;2023-10-13T07:02:42;99431.88;;;16.43;100.00
60832;BME280;46665;51.558;-0.448;2023-10-13T07:05:27;99427.63;;;16.46;100.00
60832;BME280;46665;51.558;-0.448;2023-10-13T07:08:15;99435.16;;;16.49;100.00
60832;BME280;46665;51.558;-0.448;2023-10-13T07:11:05;99443.84;;;16.51;100.00
60832;BME280;46665;51.558;-0.448;2023-10-13T07:13:51;99429.88;;;16.56;100.00
60832;BME280;46665;51.558;-0.448;2023-10-13T07:16:54;99441.28;;;16.58;100.00
60832;BME280;46665;51.558;-0.448;2023-10-13T07:19:42;99435.53;;;16.63;100.00
60832;BME280;46665;51.558;-0.448;2023-10-13T07:22:36;99436.69;;;16.62;100.00
60832;BME280;46665;51.558;-0.448;2023-10-13T07:25:24;99430.75;;;16.60;100.00
60832;BME280;46665;51.558;-0.448;2023-10-13T07:28:09;99437.84;;;16.61;100.00
60832;BME280;46665;51.558;-0.448;2023-10-13T07:30:54;99438.28;;;16.63;100.00
60832;BME280;46665;51.558;-0.448;2023-10-13T07:33:38;99429.16;;;16.59;100.00
60832;BME280;46665;51.558;-0.448;2023-10-13T07:36:24;99438.97;;;16.60;100.00
60832;BME280;46665;51.558;-0.448;2023-10-13T07:39:08;99444.72;;;16.55;100.00
60832;BME280;46665;51.558;-0.448;2023-10-13T07:42:11;99439.50;;;16.50;100.00
60832;BME280;46665;51.558;-0.448;2023-10-13T07:45:06;99437.78;;;16.45;100.00
60832;BME280;46665;51.558;-0.448;2023-10-13T07:47:51;99428.66;;;16.41;100.00
60832;BME280;46665;51.558;-0.448;2023-10-13T07:50:35;99433.25;;;16.37;100.00
60832;BME280;46665;51.558;-0.448;2023-10-13T07:53:19;99441.84;;;16.36;100.00
60832;BME280;46665;51.558;-0.448;2023-10-13T07:56:10;99463.34;;;16.34;100.00
60832;BME280;46665;51.558;-0.448;2023-10-13T07:58:57;99432.72;;;16.32;100.00
60832;BME280;46665;51.558;-0.448;2023-10-13T08:01:44;99424.47;;;16.32;100.00
60832;BME280;46665;51.558;-0.448;2023-10-13T08:04:29;99436.16;;;16.29;100.00
60832;BME280;46665;51.558;-0.448;2023-10-13T08:07:13;99441.19;;;16.27;100.00
60832;BME280;46665;51.558;-0.448;2023-10-13T08:09:57;99438.78;;;16.25;100.00
60832;BME280;46665;51.558;-0.448;2023-10-13T08:12:42;99441.91;;;16.23;100.00
60832;BME280;46665;51.558;-0.448;2023-10-13T08:15:28;99440.97;;;16.19;100.00
60832;BME280;46665;51.558;-0.448;2023-10-13T08:18:16;99447.63;;;16.18;100.00
60832;BME280;46665;51.558;-0.448;2023-10-13T08:21:17;99440.31;;;16.10;100.00
60832;BME280;46665;51.558;-0.448;2023-10-13T08:24:03;99458.38;;;16.11;100.00
60832;BME280;46665;51.558;-0.448;2023-10-13T08:26:50;99448.22;;;16.12;100.00
60832;BME280;46665;51.558;-0.448;2023-10-13T08:32:16;99447.66;;;16.06;100.00
60832;BME280;46665;51.558;-0.448;2023-10-13T08:35:13;99431.00;;;15.87;100.00
60832;BME280;46665;51.558;-0.448;2023-10-13T08:38:07;99464.69;;;15.99;100.00
60832;BME280;46665;51.558;-0.448;2023-10-13T08:40:59;99461.41;;;15.94;100.00
60832;BME280;46665;51.558;-0.448;2023-10-13T08:44:02;99452.25;;;15.90;100.00
60832;BME280;46665;51.558;-0.448;2023-10-13T08:46:47;99455.00;;;15.90;100.00
60832;BME280;46665;51.558;-0.448;2023-10-13T08:49:49;99456.38;;;15.84;100.00
60832;BME280;46665;51.558;-0.448;2023-10-13T08:52:41;99460.94;;;15.79;100.00
60832;BME280;46665;51.558;-0.448;2023-10-13T08:55:33;99457.66;;;15.74;100.00
60832;BME280;46665;51.558;-0.448;2023-10-13T08:58:23;99463.94;;;15.74;100.00
60832;BME280;46665;51.558;-0.448;2023-10-13T09:01:13;99468.53;;;15.70;100.00
60832;BME280;46665;51.558;-0.448;2023-10-13T09:03:58;99460.59;;;15.69;100.00
60832;BME280;46665;51.558;-0.448;2023-10-13T09:07:05;99465.41;;;15.72;100.00
60832;BME280;46665;51.558;-0.448;2023-10-13T09:09:50;99470.09;;;15.71;100.00
60832;BME280;46665;51.558;-0.448;2023-10-13T09:12:37;99457.31;;;15.75;100.00
60832;BME280;46665;51.558;-0.448;2023-10-13T09:15:29;99456.84;;;15.73;100.00
60832;BME280;46665;51.558;-0.448;2023-10-13T09:18:33;99463.59;;;15.76;100.00
60832;BME280;46665;51.558;-0.448;2023-10-13T09:21:37;99466.00;;;15.77;100.00
60832;BME280;46665;51.558;-0.448;2023-10-13T09:24:21;99464.84;;;15.78;100.00
60832;BME280;46665;51.558;-0.448;2023-10-13T09:27:05;99461.41;;;15.81;100.00
60832;BME280;46665;51.558;-0.448;2023-10-13T09:30:00;99464.84;;;15.78;100.00
60832;BME280;46665;51.558;-0.448;2023-10-13T09:33:01;99463.69;;;15.79;100.00
60832;BME280;46665;51.558;-0.448;2023-10-13T09:35:48;99466.09;;;15.81;100.00
60832;BME280;46665;51.558;-0.448;2023-10-13T09:38:36;99466.09;;;15.81;100.00
60832;BME280;46665;51.558;-0.448;2023-10-13T09:41:24;99461.78;;;15.80;100.00
60832;BME280;46665;51.558;-0.448;2023-10-13T09:44:10;99471.25;;;15.82;100.00
60832;BME280;46665;51.558;-0.448;2023-10-13T09:46:57;99473.53;;;15.80;100.00
60832;BME280;46665;51.558;-0.448;2023-10-13T09:49:47;99465.41;;;15.84;100.00
60832;BME280;46665;51.558;-0.448;2023-10-13T09:52:35;99479.13;;;15.84;100.00
60832;BME280;46665;51.558;-0.448;2023-10-13T09:55:35;99485.06;;;15.86;100.00
60832;BME280;46665;51.558;-0.448;2023-10-13T09:58:23;99460.72;;;15.85;100.00
60832;BME280;46665;51.558;-0.448;2023-10-13T10:01:19;99470.31;;;15.91;100.00
60832;BME280;46665;51.558;-0.448;2023-10-13T10:04:16;99471.22;;;15.95;100.00
60832;BME280;46665;51.558;-0.448;2023-10-13T10:07:07;99469.06;;;16.00;100.00
60832;BME280;46665;51.558;-0.448;2023-10-13T10:09:58;99460.00;;;16.00;100.00
60832;BME280;46665;51.558;-0.448;2023-10-13T10:13:13;99467.66;;;16.07;100.00
60832;BME280;46665;51.558;-0.448;2023-10-13T10:16:10;99462.25;;;16.10;100.00
60832;BME280;46665;51.558;-0.448;2023-10-13T10:19:01;99474.84;;;16.11;100.00
60832;BME280;46665;51.558;-0.448;2023-10-13T10:21:46;99472.91;;;16.12;100.00
60832;BME280;46665;51.558;-0.448;2023-10-13T10:24:32;99479.31;;;16.16;100.00
60832;BME280;46665;51.558;-0.448;2023-10-13T10:27:31;99479.06;;;16.21;100.00
60832;BME280;46665;51.558;-0.448;2023-10-13T10:30:24;99471.63;;;16.21;100.00
60832;BME280;46665;51.558;-0.448;2023-10-13T10:33:09;99480.31;;;16.23;100.00
60832;BME280;46665;51.558;-0.448;2023-10-13T10:36:01;99490.50;;;16.23;100.00
60832;BME280;46665;51.558;-0.448;2023-10-13T10:38:55;99469.09;;;16.29;100.00
60832;BME280;46665;51.558;-0.448;2023-10-13T10:41:42;99460.16;;;16.32;100.00
60832;BME280;46665;51.558;-0.448;2023-10-13T10:44:26;99447.34;;;16.36;100.00
60832;BME280;46665;51.558;-0.448;2023-10-13T10:47:17;99446.28;;;16.40;100.00
60832;BME280;46665;51.558;-0.448;2023-10-13T10:50:26;99451.50;;;16.45;100.00
60832;BME280;46665;51.558;-0.448;2023-10-13T10:53:24;99436.75;;;16.50;100.00
60832;BME280;46665;51.558;-0.448;2023-10-13T10:56:21;99448.72;;;16.58;100.00
60832;BME280;46665;51.558;-0.448;2023-10-13T10:59:09;99425.00;;;16.65;100.00
60832;BME280;46665;51.558;-0.448;2023-10-13T11:02:03;99448.56;;;16.79;100.00
60832;BME280;46665;51.558;-0.448;2023-10-13T11:04:51;99431.72;;;16.96;100.00
60832;BME280;46665;51.558;-0.448;2023-10-13T11:07:35;99416.72;;;16.94;100.00
60832;BME280;46665;51.558;-0.448;2023-10-13T11:10:19;99439.53;;;17.10;100.00
60832;BME280;46665;51.558;-0.448;2023-10-13T11:13:11;99433.66;;;17.11;100.00
60832;BME280;46665;51.558;-0.448;2023-10-13T11:16:00;99437.31;;;17.00;100.00
60832;BME280;46665;51.558;-0.448;2023-10-13T11:18:45;99443.78;;;16.92;100.00
60832;BME280;46665;51.558;-0.448;2023-10-13T11:21:31;99442.53;;;16.89;100.00
60832;BME280;46665;51.558;-0.448;2023-10-13T11:24:15;99433.47;;;16.88;100.00
60832;BME280;46665;51.558;-0.448;2023-10-13T11:27:01;99421.53;;;16.97;100.00
60832;BME280;46665;51.558;-0.448;2023-10-13T11:29:46;99439.34;;;17.03;100.00
60832;BME280;46665;51.558;-0.448;2023-10-13T11:32:36;99437.84;;;17.05;100.00
60832;BME280;46665;51.558;-0.448;2023-10-13T11:35:25;99433.13;;;17.06;100.00
60832;BME280;46665;51.558;-0.448;2023-10-13T11:38:09;99453.28;;;17.10;100.00
60832;BME280;46665;51.558;-0.448;2023-10-13T11:41:00;99436.78;;;17.10;100.00
60832;BME280;46665;51.558;-0.448;2023-10-13T11:43:51;99418.78;;;17.13;100.00
60832;BME280;46665;51.558;-0.448;2023-10-13T11:46:35;99419.41;;;17.22;100.00
60832;BME280;46665;51.558;-0.448;2023-10-13T11:49:19;99420.66;;;17.24;100.00
60832;BME280;46665;51.558;-0.448;2023-10-13T11:52:15;99415.16;;;17.24;100.00
60832;BME280;46665;51.558;-0.448;2023-10-13T11:55:02;99419.03;;;17.23;100.00
60832;BME280;46665;51.558;-0.448;2023-10-13T11:57:46;99419.56;;;17.29;100.00
60832;BME280;46665;51.558;-0.448;2023-10-13T12:00:30;99419.75;;;17.36;100.00
60832;BME280;46665;51.558;-0.448;2023-10-13T12:03:49;99426.22;;;17.28;100.00
60832;BME280;46665;51.558;-0.448;2023-10-13T12:06:52;99412.03;;;17.26;100.00
60832;BME280;46665;51.558;-0.448;2023-10-13T12:09:56;99425.34;;;17.24;100.00
60832;BME280;46665;51.558;-0.448;2023-10-13T12:12:40;99423.03;;;17.26;100.00
60832;BME280;46665;51.558;-0.448;2023-10-13T12:15:26;99426.84;;;17.21;100.00
60832;BME280;46665;51.558;-0.448;2023-10-13T12:18:15;99427.94;;;17.17;100.00
60832;BME280;46665;51.558;-0.448;2023-10-13T12:21:08;99422.59;;;17.24;100.00
60832;BME280;46665;51.558;-0.448;2023-10-13T12:23:52;99424.97;;;17.41;100.00
60832;BME280;46665;51.558;-0.448;2023-10-13T12:26:37;99422.94;;;17.38;100.00
60832;BME280;46665;51.558;-0.448;2023-10-13T12:29:26;99421.38;;;17.37;100.00
60832;BME280;46665;51.558;-0.448;2023-10-13T12:32:14;99419.41;;;17.38;100.00
60832;BME280;46665;51.558;-0.448;2023-10-13T12:34:58;99415.88;;;17.37;100.00
60832;BME280;46665;51.558;-0.448;2023-10-13T12:37:45;99421.50;;;17.44;100.00
60832;BME280;46665;51.558;-0.448;2023-10-13T12:40:29;99418.56;;;17.53;100.00
60832;BME280;46665;51.558;-0.448;2023-10-13T12:43:32;99424.66;;;17.62;100.00
60832;BME280;46665;51.558;-0.448;2023-10-13T12:46:35;99416.16;;;17.83;100.00
60832;BME280;46665;51.558;-0.448;2023-10-13T12:49:38;99412.69;;;18.06;100.00
60832;BME280;46665;51.558;-0.448;2023-10-13T12:52:31;99424.94;;;18.28;100.00
60832;BME280;46665;51.558;-0.448;2023-10-13T12:55:18;99427.69;;;18.28;100.00
60832;BME280;46665;51.558;-0.448;2023-10-13T12:58:08;99424.53;;;18.26;100.00
60832;BME280;46665;51.558;-0.448;2023-10-13T13:00:52;99437.72;;;18.36;100.00
60832;BME280;46665;51.558;-0.448;2023-10-13T13:03:49;99446.97;;;18.28;100.00
60832;BME280;46665;51.558;-0.448;2023-10-13T13:06:33;99428.34;;;18.21;100.00
60832;BME280;46665;51.558;-0.448;2023-10-13T13:09:17;99432.25;;;18.20;100.00
60832;BME280;46665;51.558;-0.448;2023-10-13T13:12:09;99416.63;;;18.24;100.00
60832;BME280;46665;51.558;-0.448;2023-10-13T13:14:56;99414.66;;;18.25;100.00
60832;BME280;46665;51.558;-0.448;2023-10-13T13:17:40;99410.22;;;18.39;100.00
60832;BME280;46665;51.558;-0.448;2023-10-13T13:20:24;99388.63;;;18.41;100.00
60832;BME280;46665;51.558;-0.448;2023-10-13T13:23:13;99398.13;;;18.44;100.00
60832;BME280;46665;51.558;-0.448;2023-10-13T13:25:58;99378.59;;;18.53;100.00
60832;BME280;46665;51.558;-0.448;2023-10-13T13:28:42;99378.59;;;18.53;100.00
60832;BME280;46665;51.558;-0.448;2023-10-13T13:31:26;99402.25;;;18.54;100.00
60832;BME280;46665;51.558;-0.448;2023-10-13T13:34:13;99398.25;;;18.51;100.00
60832;BME280;46665;51.558;-0.448;2023-10-13T13:36:57;99396.59;;;18.47;100.00
60832;BME280;46665;51.558;-0.448;2023-10-13T13:39:44;99404.84;;;18.47;100.00
60832;BME280;46665;51.558;-0.448;2023-10-13T13:42:29;99394.28;;;18.49;100.00
60832;BME280;46665;51.558;-0.448;2023-10-13T13:45:20;99398.97;;;18.48;100.00
60832;BME280;46665;51.558;-0.448;2023-10-13T13:48:15;99396.59;;;18.47;100.00
60832;BME280;46665;51.558;-0.448;2023-10-13T13:51:05;99379.94;;;18.39;100.00
60832;BME280;46665;51.558;-0.448;2023-10-13T13:53:57;99380.81;;;18.44;100.00
60832;BME280;46665;51.558;-0.448;2023-10-13T13:56:41;99368.13;;;18.39;100.00
60832;BME280;46665;51.558;-0.448;2023-10-13T13:59:26;99378.06;;;18.44;100.00
60832;BME280;46665;51.558;-0.448;2023-10-13T14:02:09;99355.28;;;18.47;100.00
60832;BME280;46665;51.558;-0.448;2023-10-13T14:05:03;99341.88;;;18.45;100.00
60832;BME280;46665;51.558;-0.448;2023-10-13T14:07:48;99332.06;;;18.48;100.00
60832;BME280;46665;51.558;-0.448;2023-10-13T14:10:35;99322.72;;;18.52;100.00
60832;BME280;46665;51.558;-0.448;2023-10-13T14:13:39;99359.88;;;18.62;100.00
60832;BME280;46665;51.558;-0.448;2023-10-13T14:16:32;99337.19;;;18.69;100.00
60832;BME280;46665;51.558;-0.448;2023-10-13T14:19:17;99335.38;;;18.76;100.00
60832;BME280;46665;51.558;-0.448;2023-10-13T14:22:11;99342.75;;;18.72;100.00
60832;BME280;46665;51.558;-0.448;2023-10-13T14:24:56;99334.56;;;18.76;100.00
60832;BME280;46665;51.558;-0.448;2023-10-13T14:27:43;99340.50;;;18.78;100.00
60832;BME280;46665;51.558;-0.448;2023-10-13T14:30:27;99341.09;;;18.91;100.00
60832;BME280;46665;51.558;-0.448;2023-10-13T14:33:15;99339.53;;;18.90;100.00
60832;BME280;46665;51.558;-0.448;2023-10-13T14:35:58;99353.53;;;19.04;100.00
60832;BME280;46665;51.558;-0.448;2023-10-13T14:38:42;99347.53;;;18.98;100.00
60832;BME280;46665;51.558;-0.448;2023-10-13T14:41:28;99351.03;;;18.95;100.00